Time;durP1;ratioP1;P1;durP2;ratioP2;P2;SDS_P1;SDS_P2;PMS_P1;PMS_P2;Temp;Humidity;BMP_temperature;BMP_pressure;BME280_temperature;BME280_humidity;BME280_pressure;Samples;Min_cycle;Max_cycle;Signal;HPM_P1;HPM_P2
2023/10/12 00:02:28;;;;;;;11.25;6.40;;;;;;;;;;5040410;28;20044;-73
2023/10/12 00:05:01;;;;;;;13.60;6.45;;;;;;;;;;5040612;28;20042;-73
2023/10/12 00:07:33;;;;;;;11.20;6.40;;;17.00;77.60;;;;;;5040539;28;20028;-73
2023/10/12 00:12:38;;;;;;;9.18;6.45;;;;;;;;;;5040835;28;20344;-72
2023/10/12 00:15:17;;;;;;;15.13;7.45;;;16.40;80.60;;;;;;5040353;28;20029;-73
2023/10/12 00:17:43;;;;;;;13.20;6.45;;;;;;;;;;5040324;28;20029;-73
2023/10/12 00:20:21;;;;;;;12.98;7.85;;;;;;;;;;5040240;28;20097;-73
2023/10/12 00:22:47;;;;;;;13.27;7.35;;;;;;;;;;5040112;28;20041;-73
2023/10/12 00:25:16;;;;;;;11.48;6.05;;;;;;;;;;5040177;28;20059;-85
2023/10/12 00:27:42;;;;;;;10.13;7.07;;;;;;;;;;5038825;28;20396;-80
2023/10/12 00:30:09;;;;;;;10.02;7.22;;;;;;;;;;5040091;28;20111;-82
2023/10/12 00:32:36;;;;;;;9.45;6.88;;;;;;;;;;5039797;28;20096;-78
2023/10/12 00:35:02;;;;;;;10.85;7.40;;;;;;;;;;5039956;28;20063;-81
2023/10/12 00:37:32;;;;;;;13.57;7.13;;;;;;;;;;5038784;28;20021;-81
2023/10/12 00:39:58;;;;;;;10.32;7.38;;;;;;;;;;5039968;28;20022;-78
2023/10/12 00:42:34;;;;;;;17.08;7.88;;;;;;;;;;5040173;28;20022;-82
2023/10/12 00:45:10;;;;;;;13.02;7.20;;;;;;;;;;5039691;28;20041;-77
2023/10/12 00:47:48;;;;;;;8.93;6.97;;;;;;;;;;5039975;28;20024;-81
2023/10/12 00:50:16;;;;;;;11.70;6.95;;;;;;;;;;5039940;28;20033;-77
2023/10/12 00:52:56;;;;;;;14.73;6.90;;;;;;;;;;5039990;28;20024;-80
2023/10/12 00:55:35;;;;;;;10.80;7.22;;;;;;;;;;5040013;28;20025;-77
2023/10/12 00:58:05;;;;;;;14.15;7.47;;;16.20;78.60;;;;;;5039783;28;20032;-79
2023/10/12 01:00:35;;;;;;;12.48;6.75;;;;;;;;;;5040011;28;20139;-78
2023/10/12 01:06:05;;;;;;;10.63;7.32;;;;;;;;;;5039727;28;20040;-80
2023/10/12 01:08:31;;;;;;;16.90;8.43;;;;;;;;;;5038906;28;20033;-77
2023/10/12 01:11:04;;;;;;;13.68;7.50;;;;;;;;;;5039724;28;20028;-73
2023/10/12 01:13:33;;;;;;;11.80;7.95;;;;;;;;;;5040160;28;20041;-74
2023/10/12 01:16:04;;;;;;;11.50;7.75;;;;;;;;;;5040007;28;20091;-74
2023/10/12 01:18:30;;;;;;;11.75;7.32;;;;;;;;;;5039970;28;20097;-73
2023/10/12 01:20:58;;;;;;;13.05;7.70;;;;;;;;;;5039399;28;20028;-73
2023/10/12 01:23:24;;;;;;;12.90;7.75;;;;;;;;;;5039351;28;20413;-74
2023/10/12 01:25:50;;;;;;;11.07;6.93;;;;;;;;;;5039494;28;20329;-73
2023/10/12 01:28:19;;;;;;;13.25;7.80;;;;;;;;;;5039338;28;20076;-73
2023/10/12 01:30:45;;;;;;;14.70;8.18;;;;;;;;;;5039578;28;20032;-73
2023/10/12 01:33:13;;;;;;;13.70;7.85;;;;;;;;;;5039232;28;20218;-73
2023/10/12 01:35:40;;;;;;;15.43;7.75;;;;;;;;;;5039509;28;20281;-73
2023/10/12 01:38:08;;;;;;;12.10;6.90;;;;;;;;;;5039432;28;20030;-79
2023/10/12 01:40:52;;;;;;;12.07;6.47;;;;;;;;;;5039361;28;20067;-79
2023/10/12 01:43:18;;;;;;;15.73;7.90;;;;;;;;;;5039263;28;20037;-83
2023/10/12 01:45:47;;;;;;;13.45;7.38;;;14.40;90.40;;;;;;5037994;28;20052;-80
2023/10/12 01:48:16;;;;;;;15.18;7.28;;;;;;;;;;5037909;28;20261;-78
2023/10/12 01:50:43;;;;;;;15.07;7.15;;;14.40;90.30;;;;;;5039143;28;20090;-79
2023/10/12 01:55:55;;;;;;;10.85;7.03;;;;;;;;;;5039482;28;20306;-80
2023/10/12 01:58:27;;;;;;;14.45;7.95;;;;;;;;;;5040718;28;20100;-80
2023/10/12 02:00:54;;;;;;;14.15;8.75;;;;;;;;;;5041362;28;20026;-79
2023/10/12 02:03:31;;;;;;;12.48;7.55;;;13.90;91.60;;;;;;5042517;28;20068;-79
2023/10/12 02:06:13;;;;;;;11.98;7.50;;;;;;;;;;5042559;28;20048;-80
2023/10/12 02:08:45;;;;;;;9.93;6.93;;;;;;;;;;5042506;28;20325;-78
2023/10/12 02:11:26;;;;;;;11.80;7.55;;;;;;;;;;5041202;28;20029;-78
2023/10/12 02:13:56;;;;;;;11.50;7.68;;;13.70;92.60;;;;;;5042607;28;20025;-81
2023/10/12 02:16:32;;;;;;;18.25;10.82;;;13.70;92.50;;;;;;5041112;28;20052;-78
2023/10/12 02:18:58;;;;;;;19.35;8.38;;;;;;;;;;5042325;28;20263;-80
2023/10/12 02:21:26;;;;;;;15.95;8.43;;;13.50;92.40;;;;;;5042275;28;20060;-81
2023/10/12 02:26:41;;;;;;;12.63;7.97;;;;;;;;;;5042644;28;20075;-81
2023/10/12 02:31:34;;;;;;;11.98;7.90;;;;;;;;;;5042457;28;20029;-77
2023/10/12 02:34:02;;;;;;;15.63;7.68;;;;;;;;;;5042184;28;20108;-75
2023/10/12 02:36:28;;;;;;;16.10;7.80;;;;;;;;;;5043425;28;20017;-89
2023/10/12 02:39:01;;;;;;;16.13;8.18;;;;;;;;;;5042484;28;20034;-76
2023/10/12 02:41:27;;;;;;;16.20;9.00;;;;;;;;;;5042381;28;20029;-78
2023/10/12 02:44:11;;;;;;;13.50;8.98;;;;;;;;;;5041768;28;20068;-77
2023/10/12 02:46:43;;;;;;;12.32;8.02;;;;;;;;;;5042048;28;20026;-79
2023/10/12 02:49:10;;;;;;;16.23;8.93;;;;;;;;;;5041703;28;20021;-78
2023/10/12 02:51:39;;;;;;;15.65;9.27;;;;;;;;;;5040308;28;20029;-74
2023/10/12 02:54:05;;;;;;;20.52;9.40;;;;;;;;;;5041876;28;20048;-74
2023/10/12 02:56:31;;;;;;;19.17;9.60;;;;;;;;;;5041699;28;20026;-73
2023/10/12 02:59:08;;;;;;;13.82;9.27;;;;;;;;;;5041787;28;20055;-73
2023/10/12 03:01:38;;;;;;;19.52;9.57;;;;;;;;;;5041501;28;20336;-72
2023/10/12 03:04:05;;;;;;;17.00;9.75;;;;;;;;;;5041406;28;20041;-75
2023/10/12 03:06:32;;;;;;;22.40;10.45;;;;;;;;;;5040527;28;20029;-74
2023/10/12 03:11:29;;;;;;;17.98;10.55;;;;;;;;;;5041678;28;20078;-75
2023/10/12 03:14:08;;;;;;;16.10;9.75;;;;;;;;;;5041366;28;20025;-76
2023/10/12 03:16:34;;;;;;;15.80;9.77;;;;;;;;;;5040005;28;20017;-74
2023/10/12 03:19:06;;;;;;;14.32;10.10;;;;;;;;;;5041219;28;20435;-74
2023/10/12 03:21:33;;;;;;;17.17;9.63;;;;;;;;;;5041369;28;20130;-75
2023/10/12 03:24:02;;;;;;;17.52;10.55;;;;;;;;;;5041044;28;20345;-74
2023/10/12 03:26:29;;;;;;;16.80;9.45;;;;;;;;;;5041147;28;20017;-74
2023/10/12 03:31:52;;;;;;;17.98;11.48;;;;;;;;;;5041002;28;20297;-74
2023/10/12 03:36:58;;;;;;;17.58;10.13;;;;;;;;;;5041406;28;20306;-85
2023/10/12 03:39:27;;;;;;;16.75;10.60;;;;;;;;;;5041100;28;20038;-78
2023/10/12 03:47:23;;;;;;;16.17;11.65;;;;;;;;;;5040918;28;20037;-76
2023/10/12 03:52:39;;;;;;;17.67;11.45;;;;;;;;;;5040882;28;20055;-86
2023/10/12 04:13:54;;;;;;;21.17;12.27;;;;;;;;;;5020505;28;20092;-74
2023/10/12 04:18:35;;;;;;;22.02;12.70;;;;;;;;;;5020854;28;20347;-78
2023/10/12 04:21:04;;;;;;;26.05;13.35;;;;;;;;;;5020075;28;20037;-77
2023/10/12 04:28:52;;;;;;;19.60;12.15;;;12.40;95.50;;;;;;5020398;28;20221;-76
2023/10/12 04:31:33;;;;;;;19.52;12.15;;;;;;;;;;5020330;28;20022;-75
2023/10/12 04:46:51;;;;;;;23.55;13.70;;;;;;;;;;5019937;28;20392;-74
2023/10/12 04:51:50;;;;;;;21.30;13.60;;;;;;;;;;5020061;28;20018;-74
2023/10/12 04:54:26;;;;;;;23.85;15.80;;;;;;;;;;5020331;28;20030;-73
2023/10/12 04:59:29;;;;;;;25.65;14.45;;;;;;;;;;5020273;28;20336;-74
2023/10/12 05:04:49;;;;;;;19.88;13.25;;;;;;;;;;5020391;28;20053;-75
2023/10/12 05:09:48;;;;;;;25.80;13.80;;;;;;;;;;5038918;28;20079;-73
2023/10/12 05:12:15;;;;;;;21.05;13.85;;;;;;;;;;5039397;28;20029;-73
2023/10/12 05:14:41;;;;;;;23.58;14.88;;;;;;;;;;5037530;28;20202;-72
2023/10/12 05:17:10;;;;;;;22.13;14.20;;;;;;;;;;5039779;28;20107;-72
2023/10/12 05:19:36;;;;;;;;;;;12.20;96.40;;;;;;5039310;28;20101;-71
2023/10/12 05:22:02;;;;;;;23.42;14.77;;;;;;;;;;5038751;28;19913;-72
2023/10/12 05:24:28;;;;;;;25.38;13.35;;;;;;;;;;5037950;28;20356;-72
2023/10/12 05:27:07;;;;;;;23.15;13.80;;;;;;;;;;5038119;28;20036;-72
2023/10/12 05:29:38;;;;;;;20.60;13.73;;;;;;;;;;5038197;28;20057;-72
2023/10/12 05:32:18;;;;;;;27.90;15.57;;;;;;;;;;5039089;28;20049;-72
2023/10/12 05:34:45;;;;;;;20.55;14.65;;;;;;;;;;5042224;28;20017;-73
2023/10/12 05:39:46;;;;;;;27.63;14.48;;;;;;;;;;5043436;28;20115;-80
2023/10/12 05:42:15;;;;;;;19.98;13.73;;;12.30;96.80;;;;;;5041360;28;20127;-80
2023/10/12 05:44:43;;;;;;;;;;;12.20;96.60;;;;;;5042201;28;20202;-78
2023/10/12 05:47:12;;;;;;;23.27;14.23;;;12.30;96.50;;;;;;5041776;28;20205;-79
2023/10/12 05:49:41;;;;;;;24.80;14.32;;;;;;;;;;5041807;28;20087;-79
2023/10/12 05:52:08;;;;;;;22.10;14.07;;;;;;;;;;5043191;28;20021;-78
2023/10/12 05:54:38;;;;;;;25.38;15.25;;;;;;;;;;5041327;28;20075;-78
2023/10/12 05:57:08;;;;;;;25.85;14.35;;;;;;;;;;5042863;28;20252;-76
2023/10/12 05:59:35;;;;;;;24.85;14.68;;;;;;;;;;5042901;28;20305;-77
2023/10/12 06:02:01;;;;;;;27.42;13.95;;;;;;;;;;5042843;28;20033;-76
2023/10/12 06:04:27;;;;;;;23.95;13.55;;;;;;;;;;5042619;28;20033;-75
2023/10/12 06:06:54;;;;;;;23.15;14.15;;;;;;;;;;5042631;28;20388;-77
2023/10/12 06:09:24;;;;;;;23.55;13.82;;;;;;;;;;5042656;28;20029;-79
2023/10/12 06:11:51;;;;;;;31.50;15.48;;;;;;;;;;5042745;28;20033;-76
2023/10/12 06:14:21;;;;;;;27.92;13.55;;;;;;;;;;5042560;28;20302;-78
2023/10/12 06:16:47;;;;;;;24.77;14.10;;;;;;;;;;5042524;28;20028;-74
2023/10/12 06:43:57;;;;;;;25.48;14.18;;;;;;;;;;5041844;28;20041;-89
2023/10/12 06:46:03;;;;;;;22.92;13.63;;;;;;;;;;5041854;28;20044;-74
2023/10/12 06:51:13;;;;;;;19.75;12.95;;;;;;;;;;5041063;28;20034;-76
2023/10/12 06:53:41;;;;;;;26.58;13.88;;;13.80;94.20;;;;;;5040562;28;20029;-76
2023/10/12 06:58:46;;;;;;;18.17;13.15;;;;;;;;;;5041810;28;20029;-77
2023/10/12 07:01:27;;;;;;;27.35;13.25;;;;;;;;;;5041618;28;20344;-86
2023/10/12 07:03:53;;;;;;;19.55;12.75;;;14.40;93.00;;;;;;5044003;28;20041;-89
2023/10/12 07:06:20;;;;;;;20.58;12.73;;;;;;;;;;5043957;28;20017;-89
2023/10/12 07:08:46;;;;;;;23.92;11.63;;;;;;;;;;5045006;28;20352;-88
2023/10/12 07:11:14;;;;;;;24.52;13.00;;;;;;;;;;5043674;28;20022;-88
2023/10/12 07:13:41;;;;;;;21.80;10.90;;;;;;;;;;5041690;28;20026;-89
2023/10/12 07:16:08;;;;;;;19.63;11.77;;;;;;;;;;5043047;28;20021;-89
2023/10/12 07:18:35;;;;;;;14.70;10.00;;;15.40;90.70;;;;;;5042567;28;20067;-88
2023/10/12 07:21:05;;;;;;;21.92;11.27;;;;;;;;;;5043548;28;20036;-89
2023/10/12 07:23:35;;;;;;;24.38;11.30;;;;;;;;;;5042855;28;20105;-88
2023/10/12 07:26:08;;;;;;;16.05;10.20;;;;;;;;;;5043175;28;20120;-89
2023/10/12 07:28:34;;;;;;;15.20;9.63;;;;;;;;;;5042165;28;20241;-89
2023/10/12 07:42:00;;;;;;;15.75;9.65;;;;;;;;;;5044345;28;20018;-89
2023/10/12 07:44:38;;;;;;;18.77;10.13;;;;;;;;;;5042757;28;20041;-88
2023/10/12 07:47:13;;;;;;;13.23;9.57;;;;;;;;;;5041871;28;20079;-88
2023/10/12 07:49:47;;;;;;;17.65;9.45;;;;;;;;;;5027035;28;20029;-88
2023/10/12 07:57:18;;;;;;;14.75;8.77;;;;;;;;;;5042547;28;20025;-87
2023/10/12 08:05:42;;;;;;;14.82;7.97;;;;;;;;;;5040017;28;20090;-89
2023/10/12 08:15:55;;;;;;;13.57;7.65;;;;;;;;;;5041904;28;20021;-88
2023/10/12 08:29:21;;;;;;;11.07;7.60;;;;;;;;;;5041146;28;20048;-88
2023/10/12 08:31:48;;;;;;;16.20;7.95;;;;;;;;;;5038599;28;20033;-88
2023/10/12 08:45:12;;;;;;;15.63;8.00;;;;;;;;;;5029299;28;20404;-89
2023/10/12 08:50:08;;;;;;;17.40;7.43;;;;;;;;;;5041653;28;19964;-89
2023/10/12 08:52:39;;;;;;;17.05;6.75;;;;;;;;;;5041111;28;20201;-88
2023/10/12 08:57:44;;;;;;;13.73;6.93;;;20.80;65.80;;;;;;5040635;28;20056;-87
2023/10/12 09:02:52;;;;;;;16.40;7.35;;;20.80;65.70;;;;;;5040699;28;20041;-85
2023/10/12 09:05:28;;;;;;;12.68;6.72;;;20.80;64.30;;;;;;5040163;28;20029;-88
2023/10/12 09:13:29;;;;;;;12.02;6.13;;;;;;;;;;5041022;28;20087;-84
2023/10/12 09:15:56;;;;;;;13.65;6.13;;;;;;;;;;5035028;28;20267;-85
2023/10/12 09:18:29;;;;;;;11.25;6.20;;;21.50;63.70;;;;;;5027214;28;20032;-85
2023/10/12 09:23:29;;;;;;;13.93;6.30;;;;;;;;;;5043260;28;20112;-85
2023/10/12 09:29:08;;;;;;;13.55;7.40;;;;;;;;;;5032918;28;20113;-87
2023/10/12 09:36:26;;;;;;;12.82;6.40;;;;;;;;;;5041816;28;20360;-83
2023/10/12 09:38:55;;;;;;;15.10;6.65;;;;;;;;;;5040200;28;20033;-84
2023/10/12 09:41:37;;;;;;;12.75;6.35;;;22.00;60.10;;;;;;5037994;28;20363;-85
2023/10/12 09:44:07;;;;;;;13.00;6.32;;;22.10;61.70;;;;;;5043007;28;20229;-83
2023/10/12 09:46:36;;;;;;;10.50;6.30;;;22.20;60.50;;;;;;5043077;28;20032;-85
2023/10/12 09:49:06;;;;;;;19.58;7.05;;;;;;;;;;5035554;28;20096;-84
2023/10/12 09:51:45;;;;;;;20.65;7.18;;;22.30;60.30;;;;;;5031374;28;20088;-80
2023/10/12 09:54:18;;;;;;;17.33;7.45;;;22.40;61.10;;;;;;5041144;28;20045;-85
2023/10/12 09:56:58;;;;;;;13.27;6.80;;;22.30;60.40;;;;;;5042876;28;20556;-81
2023/10/12 09:59:38;;;;;;;15.38;7.00;;;;;;;;;;5033749;28;20026;-84
2023/10/12 10:07:52;;;;;;;19.85;6.43;;;;;;;;;;5034033;28;20289;-84
2023/10/12 10:10:37;;;;;;;11.98;7.03;;;;;;;;;;5023164;28;20026;-85
2023/10/12 10:13:12;;;;;;;16.33;7.13;;;;;;;;;;5025413;28;20025;-84
2023/10/12 10:15:55;;;;;;;14.95;6.97;;;;;;;;;;5030670;28;20044;-84
2023/10/12 10:18:25;;;;;;;19.23;7.45;;;;;;;;;;5041309;28;20040;-85
2023/10/12 10:21:01;;;;;;;16.70;7.32;;;;;;;;;;5040210;28;20055;-84
2023/10/12 10:23:37;;;;;;;13.52;7.13;;;;;;;;;;5040757;28;20057;-85
2023/10/12 10:26:23;;;;;;;11.60;7.75;;;22.70;59.10;;;;;;5039204;28;20034;-85
2023/10/12 10:29:04;;;;;;;14.18;7.45;;;;;;;;;;5027006;28;20040;-85
2023/10/12 10:31:53;;;;;;;10.43;7.63;;;22.70;60.00;;;;;;5038106;28;20041;-85
2023/10/12 10:34:23;;;;;;;10.95;7.43;;;;;;;;;;5020246;28;20042;-84
2023/10/12 10:36:52;;;;;;;18.10;8.27;;;;;;;;;;5019959;28;20065;-87
2023/10/12 10:44:26;;;;;;;16.73;7.43;;;22.80;59.40;;;;;;5020167;28;20104;-86
2023/10/12 10:49:33;;;;;;;16.45;6.60;;;;;;;;;;4921457;27;7132016;-84
2023/10/12 10:52:20;;;;;;;11.38;6.95;;;;;;;;;;5128414;28;20092;-83
2023/10/12 10:55:00;;;;;;;;;;;23.40;58.90;;;;;;5138635;27;20028;-76
2023/10/12 10:57:31;;;;;;;16.08;7.32;;;;;;;;;;5137856;27;19983;-75
2023/10/12 11:00:01;;;;;;;13.05;7.00;;;23.40;61.60;;;;;;5119784;28;20035;-76
2023/10/12 11:02:27;;;;;;;13.73;7.18;;;;;;;;;;5134514;28;20019;-76
2023/10/12 11:04:57;;;;;;;10.70;6.63;;;23.20;58.80;;;;;;5137342;27;20090;-76
2023/10/12 11:07:26;;;;;;;14.75;7.55;;;23.20;94.80;;;;;;5117339;28;20031;-76
2023/10/12 11:12:25;;;;;;;12.93;6.85;;;23.60;57.60;;;;;;5137239;27;20055;-76
2023/10/12 11:17:55;;;;;;;12.15;7.75;;;23.60;57.90;;;;;;5136643;28;20304;-76
2023/10/12 11:21:07;;;;;;;13.15;7.45;;;;;;;;;;5136307;27;20099;-76
2023/10/12 11:23:11;;;;;;;12.82;7.47;;;;;;;;;;5132060;28;20046;-75
2023/10/12 11:25:41;;;;;;;21.70;7.63;;;;;;;;;;5137927;28;20058;-75
2023/10/12 11:28:21;;;;;;;13.52;7.18;;;23.80;94.00;;;;;;5130156;27;20020;-76
2023/10/12 11:30:49;;;;;;;19.83;8.50;;;;;;;;;;5122512;28;20059;-76
2023/10/12 11:33:16;;;;;;;17.10;6.97;;;;;;;;;;5137337;28;20035;-76
2023/10/12 11:35:43;;;;;;;15.15;7.00;;;24.10;56.90;;;;;;5137259;27;20038;-76
2023/10/12 11:38:17;;;;;;;14.02;7.00;;;24.20;57.20;;;;;;5137131;27;20031;-76
2023/10/12 11:40:44;;;;;;;14.85;6.80;;;;;;;;;;5114008;27;20020;-76
2023/10/12 11:43:10;;;;;;;14.68;6.93;;;;;;;;;;5114944;28;20055;-76
2023/10/12 11:45:37;;;;;;;20.98;7.22;;;;;;;;;;5113552;28;20022;-76
2023/10/12 11:48:20;;;;;;;17.08;7.20;;;24.60;56.90;;;;;;5116059;28;20367;-75
2023/10/12 11:50:48;;;;;;;11.90;7.30;;;;;;;;;;5111673;28;20070;-75
2023/10/12 11:53:17;;;;;;;11.38;7.03;;;;;;;;;;5107178;28;20024;-75
2023/10/12 11:55:44;;;;;;;14.50;7.28;;;23.20;56.20;;;;;;5107276;28;20031;-75
2023/10/12 11:58:16;;;;;;;10.55;6.65;;;;;;;;;;5109376;28;20044;-76
2023/10/12 12:00:45;;;;;;;15.75;8.60;;;;;;;;;;5085077;28;20016;-75
2023/10/12 12:03:11;;;;;;;12.70;6.85;;;24.50;57.00;;;;;;5090575;28;20279;-76
2023/10/12 12:05:43;;;;;;;15.05;7.07;;;;;;;;;;5099710;28;20316;-76
2023/10/12 12:08:18;;;;;;;11.18;6.30;;;24.50;55.60;;;;;;5091635;28;20043;-75
2023/10/12 12:10:46;;;;;;;11.05;6.15;;;24.60;57.10;;;;;;5101297;28;20027;-75
2023/10/12 12:13:20;;;;;;;9.32;6.38;;;24.60;57.60;;;;;;5098651;28;20078;-76
2023/10/12 12:15:46;;;;;;;19.52;8.15;;;24.70;57.10;;;;;;5101825;28;20027;-77
2023/10/12 12:18:17;;;;;;;15.15;6.53;;;24.70;56.70;;;;;;5101612;28;20063;-77
2023/10/12 12:20:52;;;;;;;12.52;5.90;;;;;;;;;;5102893;28;20028;-77
2023/10/12 12:23:19;;;;;;;12.15;6.25;;;;;;;;;;5101178;28;20032;-76
2023/10/12 12:25:45;;;;;;;11.65;5.10;;;;;;;;;;5101253;28;20368;-76
2023/10/12 12:28:15;;;;;;;12.55;5.80;;;;;;;;;;5099883;28;20024;-76
2023/10/12 12:30:55;;;;;;;15.50;6.03;;;25.20;65.30;;;;;;5100867;28;20054;-76
2023/10/12 12:33:21;;;;;;;11.88;6.97;;;;;;;;;;5102447;28;20043;-76
2023/10/12 12:35:59;;;;;;;10.63;5.72;;;25.80;52.90;;;;;;5102356;28;20024;-76
2023/10/12 12:38:40;;;;;;;8.13;4.82;;;;;;;;;;5100807;28;20040;-76
2023/10/12 12:41:12;;;;;;;12.07;5.30;;;;;;;;;;5102025;28;20039;-75
2023/10/12 12:43:38;;;;;;;17.27;5.15;;;;;;;;;;5102040;28;20027;-77
2023/10/12 12:46:05;;;;;;;13.88;5.60;;;;;;;;;;5099885;28;20063;-76
2023/10/12 12:48:33;;;;;;;12.35;5.15;;;27.60;87.70;;;;;;5101600;28;20358;-76
2023/10/12 12:50:59;;;;;;;;;;;28.30;47.30;;;;;;5102334;28;20020;-76
2023/10/12 12:53:26;;;;;;;9.27;5.15;;;;;;;;;;5100645;28;19992;-77
2023/10/12 12:55:53;;;;;;;8.90;5.22;;;28.80;51.20;;;;;;5100661;28;20032;-77
2023/10/12 12:58:23;;;;;;;15.95;5.13;;;;;;;;;;5101739;28;20051;-76
2023/10/12 13:00:52;;;;;;;14.98;6.40;;;29.30;44.80;;;;;;5101889;28;20024;-77
2023/10/12 13:03:18;;;;;;;14.57;4.70;;;;;;;;;;5101553;28;20016;-77
2023/10/12 13:05:44;;;;;;;13.27;5.05;;;;;;;;;;5101806;28;20097;-78
2023/10/12 13:08:11;;;;;;;9.60;4.80;;;;;;;;;;5101860;28;20064;-77
2023/10/12 13:10:39;;;;;;;17.10;5.32;;;29.70;44.70;;;;;;5101212;28;20173;-78
2023/10/12 13:13:06;;;;;;;21.73;5.50;;;29.70;81.10;;;;;;5101200;28;20028;-78
2023/10/12 13:15:32;;;;;;;10.38;4.97;;;;;;;;;;5101578;28;20088;-78
2023/10/12 13:18:01;;;;;;;11.40;4.93;;;29.20;43.30;;;;;;5101472;28;20062;-77
2023/10/12 13:20:29;;;;;;;15.30;4.88;;;29.80;81.90;;;;;;5101353;28;20577;-77
2023/10/12 13:22:56;;;;;;;10.38;5.18;;;29.90;43.00;;;;;;5101194;28;20055;-77
2023/10/12 13:25:22;;;;;;;14.35;5.50;;;;;;;;;;5101240;28;20020;-77
2023/10/12 13:27:49;;;;;;;10.00;5.78;;;;;;;;;;5101286;28;20051;-77
2023/10/12 13:30:15;;;;;;;11.55;5.00;;;29.40;43.60;;;;;;5101408;28;20418;-77
2023/10/12 13:32:48;;;;;;;9.88;4.18;;;29.10;44.80;;;;;;5101547;28;20059;-77
2023/10/12 13:35:41;;;;;;;7.85;4.43;;;28.50;83.80;;;;;;5101489;28;20051;-76
2023/10/12 13:38:09;;;;;;;13.85;4.32;;;28.00;84.10;;;;;;5094432;28;20052;-77
2023/10/12 13:40:38;;;;;;;;;;;27.70;46.60;;;;;;5092295;28;20443;-77
2023/10/12 13:43:14;;;;;;;13.02;4.60;;;27.20;64.40;;;;;;5094194;28;19949;-77
2023/10/12 13:45:51;;;;;;;9.85;5.43;;;27.00;47.80;;;;;;5092214;28;20027;-76
2023/10/12 13:48:20;;;;;;;15.55;5.93;;;;;;;;;;5093874;28;20042;-78
2023/10/12 13:51:00;;;;;;;11.70;4.95;;;26.50;49.80;;;;;;5091452;28;20044;-77
2023/10/12 13:53:29;;;;;;;10.77;4.95;;;;;;;;;;5080640;28;20358;-76
2023/10/12 13:55:56;;;;;;;12.25;4.72;;;;;;;;;;5083315;28;20020;-76
2023/10/12 13:58:25;;;;;;;14.80;4.57;;;26.30;50.20;;;;;;5100618;28;20047;-76
2023/10/12 14:00:53;;;;;;;10.48;5.05;;;26.00;49.40;;;;;;5098261;28;20220;-78
2023/10/12 14:03:27;;;;;;;15.93;4.60;;;;;;;;;;5098484;28;20098;-78
2023/10/12 14:05:54;;;;;;;7.25;4.38;;;;;;;;;;5097815;28;20024;-78
2023/10/12 14:08:20;;;;;;;10.07;5.00;;;;;;;;;;5089913;28;20097;-79
2023/10/12 14:10:46;;;;;;;18.35;5.28;;;;;;;;;;5097459;28;20359;-78
2023/10/12 14:13:13;;;;;;;7.82;4.85;;;;;;;;;;5098596;28;20030;-78
2023/10/12 14:15:43;;;;;;;9.27;5.13;;;25.40;52.30;;;;;;5100326;28;20048;-78
2023/10/12 14:18:11;;;;;;;13.30;4.85;;;;;;;;;;5099482;28;20036;-78
2023/10/12 14:20:38;;;;;;;13.55;4.60;;;;;;;;;;5100007;28;20028;-79
2023/10/12 14:23:08;;;;;;;11.70;5.38;;;;;;;;;;5097744;28;20042;-79
2023/10/12 14:25:43;;;;;;;11.18;5.60;;;25.20;52.20;;;;;;5100172;28;20172;-78
2023/10/12 14:28:11;;;;;;;10.80;5.28;;;25.30;52.60;;;;;;5099591;28;20035;-78
2023/10/12 14:30:38;;;;;;;13.77;6.75;;;;;;;;;;5099194;28;20015;-78
2023/10/12 14:33:06;;;;;;;10.43;5.50;;;25.10;53.80;;;;;;5097708;28;20103;-78
2023/10/12 14:35:35;;;;;;;;;;;25.20;52.40;;;;;;5099461;28;20016;-78
2023/10/12 14:38:02;;;;;;;9.80;4.50;;;;;;;;;;5096699;28;20108;-78
2023/10/12 14:40:32;;;;;;;7.93;5.67;;;;;;;;;;5100530;28;20047;-79
2023/10/12 14:43:11;;;;;;;10.55;5.10;;;25.10;52.70;;;;;;5100527;28;20040;-79
2023/10/12 14:45:55;;;;;;;11.73;4.88;;;25.10;53.20;;;;;;5100431;28;20024;-78
2023/10/12 14:48:22;;;;;;;9.40;5.65;;;25.10;91.10;;;;;;5100103;28;20386;-78
2023/10/12 14:51:25;;;;;;;13.65;5.07;;;25.30;53.50;;;;;;5100196;28;20144;-78
2023/10/12 14:53:50;;;;;;;13.73;5.13;;;25.20;69.80;;;;;;5099980;28;20028;-78
2023/10/12 14:56:30;;;;;;;11.32;4.43;;;25.10;53.10;;;;;;5095397;28;20081;-78
2023/10/12 14:58:56;;;;;;;13.32;5.00;;;24.90;52.80;;;;;;5098590;28;20235;-79
2023/10/12 15:01:27;;;;;;;7.03;5.00;;;;;;;;;;5100214;28;20245;-79
2023/10/12 15:03:54;;;;;;;17.88;5.30;;;;;;;;;;5099920;28;20438;-79
2023/10/12 15:06:21;;;;;;;11.73;6.18;;;;;;;;;;5100295;28;20024;-79
2023/10/12 15:08:48;;;;;;;14.57;5.40;;;;;;;;;;5099984;28;20020;-78
2023/10/12 15:11:14;;;;;;;19.23;5.90;;;;;;;;;;5091874;28;20327;-83
2023/10/12 15:13:41;;;;;;;13.30;5.35;;;;;;;;;;5095229;28;20031;-82
2023/10/12 15:16:10;;;;;;;10.93;5.47;;;;;;;;;;5095977;28;20263;-81
2023/10/12 15:18:39;;;;;;;14.18;5.45;;;;;;;;;;5103146;28;20059;-81
2023/10/12 15:21:10;;;;;;;;;;;24.00;58.00;;;;;;5105155;28;20266;-82
2023/10/12 15:23:36;;;;;;;13.38;5.30;;;;;;;;;;5106041;28;19991;-81
2023/10/12 15:26:02;;;;;;;9.82;5.53;;;;;;;;;;5103488;28;20031;-81
2023/10/12 15:28:28;;;;;;;13.80;5.28;;;;;;;;;;5103154;28;20024;-81
2023/10/12 15:30:54;;;;;;;14.20;5.35;;;;;;;;;;5103535;28;20024;-81
2023/10/12 15:33:22;;;;;;;12.57;5.70;;;;;;;;;;5102588;28;20216;-82
2023/10/12 15:35:48;;;;;;;15.07;5.75;;;;;;;;;;5105050;28;20031;-82
2023/10/12 15:38:15;;;;;;;10.50;5.57;;;;;;;;;;5099864;28;20071;-81
2023/10/12 15:40:41;;;;;;;20.27;6.55;;;;;;;;;;5094956;28;20028;-81
2023/10/12 15:43:17;;;;;;;17.38;5.53;;;22.60;62.30;;;;;;5104887;28;20041;-82
2023/10/12 15:45:45;;;;;;;15.63;4.40;;;;;;;;;;5101372;28;20375;-82
2023/10/12 15:48:13;;;;;;;15.77;4.88;;;;;;;;;;5104872;28;20329;-82
2023/10/12 15:50:39;;;;;;;18.85;6.38;;;;;;;;;;5106033;28;20190;-82
2023/10/12 15:53:06;;;;;;;9.82;5.00;;;;;;;;;;5098322;28;20324;-82
2023/10/12 15:55:34;;;;;;;8.80;5.45;;;21.60;97.10;;;;;;5104616;28;20084;-82
2023/10/12 15:58:02;;;;;;;18.50;5.50;;;;;;;;;;5097999;28;20028;-82
2023/10/12 16:00:32;;;;;;;12.73;4.88;;;;;;;;;;5097305;28;20027;-83
2023/10/12 16:03:06;;;;;;;17.88;5.82;;;21.20;70.50;;;;;;5106367;28;20066;-83
2023/10/12 16:05:34;;;;;;;11.27;5.80;;;;;;;;;;5103165;28;20043;-82
2023/10/12 16:08:22;;;;;;;14.45;5.57;;;21.30;99.40;;;;;;5107922;28;20019;-82
2023/10/12 16:10:51;;;;;;;20.60;5.60;;;;;;;;;;5107021;28;20038;-81
2023/10/12 16:13:17;;;;;;;27.38;6.00;;;;;;;;;;5106355;28;20028;-83
2023/10/12 16:15:44;;;;;;;12.10;5.25;;;;;;;;;;5097371;28;20051;-82
2023/10/12 16:18:11;;;;;;;10.95;5.25;;;;;;;;;;5088605;28;20208;-82
2023/10/12 16:20:38;;;;;;;14.25;5.25;;;;;;;;;;5094978;28;20016;-80
2023/10/12 16:23:04;;;;;;;12.75;5.10;;;;;;;;;;5108947;28;20047;-82
2023/10/12 16:25:31;;;;;;;11.50;5.38;;;20.20;74.30;;;;;;5108832;28;20028;-82
2023/10/12 16:27:58;;;;;;;12.85;5.57;;;19.80;99.90;;;;;;5108825;28;20016;-82
2023/10/12 16:30:26;;;;;;;10.48;4.63;;;;;;;;;;5107074;28;20024;-82
2023/10/12 16:32:54;;;;;;;10.57;5.18;;;;;;;;;;5098812;28;20012;-82
2023/10/12 16:35:24;;;;;;;8.95;5.57;;;19.90;76.20;;;;;;5098916;28;20047;-82
2023/10/12 16:37:52;;;;;;;17.88;6.82;;;19.80;77.00;;;;;;5093100;28;20033;-81
2023/10/12 16:40:19;;;;;;;14.60;5.57;;;;;;;;;;5100592;28;20035;-78
2023/10/12 16:42:48;;;;;;;15.60;7.10;;;;;;;;;;5093405;28;20072;-78
2023/10/12 16:45:15;;;;;;;12.55;6.18;;;19.60;77.10;;;;;;5101031;28;20028;-79
2023/10/12 16:47:42;;;;;;;14.45;6.47;;;19.60;76.30;;;;;;5093987;28;20097;-79
2023/10/12 16:50:09;;;;;;;11.00;5.70;;;;;;;;;;5082830;28;20546;-78
2023/10/12 16:52:36;;;;;;;12.95;7.53;;;;;;;;;;5086288;28;20012;-79
2023/10/12 16:55:10;;;;;;;15.00;6.07;;;;;;;;;;5214781;22;20045;-85
